Time;durP1;ratioP1;P1;durP2;ratioP2;P2;SDS_P1;SDS_P2;PMS_P1;PMS_P2;Temp;Humidity;BMP_temperature;BMP_pressure;BME280_temperature;BME280_humidity;BME280_pressure;Samples;Min_cycle;Max_cycle;Signal;HPM_P1;HPM_P2
2023/06/28 00:02:12;;;;;;;15.18;7.70;;;;;;;20.72;79.37;98050.59;4365013;32;20133;-82
2023/06/28 00:04:39;;;;;;;17.45;7.60;;;;;;;20.80;78.89;98055.22;4365623;32;20111;-81
2023/06/28 00:07:07;;;;;;;14.98;8.10;;;;;;;20.68;79.77;98058.88;4365119;32;20446;-81
2023/06/28 00:09:34;;;;;;;16.45;7.93;;;;;;;20.58;80.00;98050.13;4365509;32;20524;-81
2023/06/28 00:12:01;;;;;;;15.75;8.15;;;;;;;20.66;79.66;98053.75;4364056;32;20113;-82
2023/06/28 00:14:29;;;;;;;15.75;7.97;;;;;;;20.68;79.46;98051.84;4364887;32;20087;-81
2023/06/28 00:16:55;;;;;;;14.85;7.55;;;;;;;20.59;79.82;98055.22;4364581;32;20099;-81
2023/06/28 00:19:26;;;;;;;17.15;8.75;;;;;;;20.82;78.30;98050.66;4365334;32;20102;-81
2023/06/28 00:21:55;;;;;;;13.90;8.38;;;;;;;20.61;79.51;98055.91;4364660;32;20540;-81
2023/06/28 00:24:22;;;;;;;15.88;8.52;;;;;;;20.39;80.89;98051.59;4365421;32;20103;-81
2023/06/28 00:26:48;;;;;;;14.45;7.65;;;;;;;20.11;82.80;98046.97;4365424;32;20148;-81
2023/06/28 00:29:15;;;;;;;18.45;8.15;;;;;;;19.94;84.34;98056.19;4365050;32;20121;-81
2023/06/28 00:31:43;;;;;;;14.77;8.52;;;;;;;19.75;86.03;98059.44;4364885;32;20106;-81
2023/06/28 00:34:10;;;;;;;16.75;8.23;;;;;;;19.77;85.55;98065.37;4364844;32;20484;-82
2023/06/28 00:36:37;;;;;;;19.52;9.15;;;;;;;19.48;87.70;98061.62;4364914;32;20149;-81
2023/06/28 00:39:04;;;;;;;15.18;8.23;;;;;;;19.45;88.08;98062.66;4365168;32;20107;-81
2023/06/28 00:41:31;;;;;;;16.67;8.32;;;;;;;19.54;87.53;98064.56;4365344;32;20105;-81
2023/06/28 00:43:58;;;;;;;16.80;8.25;;;;;;;19.65;87.44;98069.81;4364230;32;20083;-81
2023/06/28 00:46:24;;;;;;;14.93;8.10;;;;;;;19.72;86.95;98064.09;4364741;32;20107;-81
2023/06/28 00:48:51;;;;;;;16.85;8.38;;;;;;;19.73;87.47;98063.97;4365161;32;20466;-81
2023/06/28 00:51:19;;;;;;;15.65;8.52;;;;;;;19.39;89.30;98054.50;4364942;32;20166;-81
2023/06/28 00:53:46;;;;;;;17.62;8.55;;;;;;;19.76;87.30;98053.25;4351248;32;20437;-82
2023/06/28 00:56:13;;;;;;;17.23;8.82;;;;;;;19.96;86.12;98059.50;4364796;32;20113;-82
2023/06/28 00:58:40;;;;;;;16.02;8.10;;;;;;;19.80;86.58;98057.31;4351702;32;20122;-81
2023/06/28 01:01:06;;;;;;;14.55;8.18;;;;;;;19.82;86.74;98058.00;4365151;32;20422;-81
2023/06/28 01:03:35;;;;;;;15.90;8.27;;;;;;;20.09;85.41;98068.03;4364849;32;20109;-81
2023/06/28 01:06:03;;;;;;;14.52;7.93;;;;;;;20.05;85.37;98064.00;4364651;32;20114;-82
2023/06/28 01:08:31;;;;;;;16.50;7.97;;;;;;;20.23;83.96;98062.53;4365147;32;20178;-81
2023/06/28 01:10:58;;;;;;;17.20;8.13;;;;;;;20.13;84.73;98063.41;4364873;32;20127;-81
2023/06/28 01:13:25;;;;;;;19.20;8.60;;;;;;;20.15;84.47;98054.44;4365021;32;20130;-81
2023/06/28 01:15:52;;;;;;;17.67;9.02;;;;;;;19.83;85.69;98062.28;4364738;32;20451;-81
2023/06/28 01:18:21;;;;;;;18.12;8.27;;;;;;;19.81;86.47;98063.38;4350940;32;20111;-81
2023/06/28 01:20:49;;;;;;;17.50;8.35;;;;;;;20.04;85.40;98054.50;4365001;32;20111;-81
2023/06/28 01:23:16;;;;;;;15.07;8.05;;;;;;;20.19;84.32;98065.50;4351686;32;20472;-81
2023/06/28 01:25:43;;;;;;;13.35;7.60;;;;;;;20.22;84.14;98062.66;4364821;32;20130;-81
2023/06/28 01:28:11;;;;;;;14.35;8.00;;;;;;;19.89;86.28;98069.66;4364239;32;20155;-81
2023/06/28 01:30:38;;;;;;;14.02;8.10;;;;;;;19.69;87.68;98062.56;4351730;32;20138;-81
2023/06/28 01:33:06;;;;;;;17.10;8.65;;;;;;;19.88;86.62;98068.00;4364756;32;20430;-81
2023/06/28 01:35:33;;;;;;;20.05;9.00;;;;;;;19.99;85.90;98076.75;4364971;32;20442;-81
2023/06/28 01:38:00;;;;;;;15.38;8.15;;;;;;;19.99;85.45;98080.25;4364376;32;20163;-81
2023/06/28 01:40:27;;;;;;;13.32;7.85;;;;;;;20.36;83.42;98069.38;4364540;32;20134;-81
2023/06/28 01:42:55;;;;;;;15.52;8.38;;;;;;;20.55;82.14;98071.34;4364976;32;20118;-82
2023/06/28 01:45:22;;;;;;;16.02;7.95;;;;;;;20.47;82.42;98070.19;4364657;32;20157;-81
2023/06/28 01:47:49;;;;;;;15.27;8.00;;;;;;;20.38;82.86;98067.44;4364280;32;20117;-81
2023/06/28 01:50:16;;;;;;;17.33;8.57;;;;;;;20.20;83.81;98072.41;4351194;32;20113;-81
2023/06/28 01:52:43;;;;;;;17.48;7.75;;;;;;;20.10;84.17;98063.66;4351074;32;20113;-81
2023/06/28 01:55:11;;;;;;;14.87;8.50;;;;;;;20.08;84.17;98057.69;4364879;32;20117;-81
2023/06/28 01:57:38;;;;;;;17.37;8.38;;;;;;;20.11;83.73;98058.28;4364248;32;20095;-81
2023/06/28 02:00:08;;;;;;;14.95;7.97;;;;;;;20.13;84.03;98052.91;4364309;32;20110;-81
2023/06/28 02:02:35;;;;;;;14.27;7.87;;;;;;;20.45;81.88;98043.28;4364852;32;20075;-81
2023/06/28 02:05:03;;;;;;;16.70;8.27;;;;;;;20.34;82.21;98032.00;4364862;32;20091;-81
2023/06/28 02:07:30;;;;;;;17.62;8.68;;;;;;;20.17;83.15;98033.38;4364469;32;20099;-81
2023/06/28 02:09:58;;;;;;;18.80;8.27;;;;;;;19.99;84.62;98027.00;4364847;32;20091;-81
2023/06/28 02:12:25;;;;;;;16.92;7.78;;;;;;;20.11;83.87;98020.78;4364631;32;20075;-81
2023/06/28 02:14:52;;;;;;;16.52;8.43;;;;;;;20.35;83.10;98025.78;4364117;32;20170;-81
2023/06/28 02:17:22;;;;;;;14.75;7.82;;;;;;;20.31;82.98;98024.38;4364462;32;20121;-81
2023/06/28 02:19:50;;;;;;;15.32;8.02;;;;;;;20.20;83.83;98020.88;4364124;32;20473;-81
2023/06/28 02:22:17;;;;;;;18.92;8.40;;;;;;;20.17;84.09;98031.56;4364139;32;20632;-81
2023/06/28 02:24:44;;;;;;;18.83;8.98;;;;;;;19.78;86.94;98033.03;4364516;32;20107;-81
2023/06/28 02:27:11;;;;;;;14.68;8.30;;;;;;;19.94;85.88;98035.25;4364477;32;20125;-81
2023/06/28 02:29:38;;;;;;;19.05;8.68;;;;;;;19.88;86.29;98033.97;4363475;32;20449;-81
2023/06/28 02:32:05;;;;;;;16.80;8.40;;;;;;;19.87;86.39;98034.06;4364211;32;20094;-81
2023/06/28 02:34:32;;;;;;;16.27;8.45;;;;;;;20.24;84.39;98039.78;4364044;32;20763;-81
2023/06/28 02:36:59;;;;;;;14.18;8.30;;;;;;;19.92;85.92;98039.78;4364132;32;20437;-81
2023/06/28 02:39:26;;;;;;;18.37;9.52;;;;;;;20.06;85.67;98042.09;4364115;32;20099;-81
2023/06/28 02:41:53;;;;;;;14.30;7.97;;;;;;;20.13;84.98;98048.50;4365730;32;20157;-81
2023/06/28 02:44:19;;;;;;;14.77;7.90;;;;;;;20.13;84.68;98055.53;4366161;32;20099;-81
2023/06/28 02:46:46;;;;;;;16.70;8.60;;;;;;;19.90;84.79;98046.94;4366120;32;20225;-81
2023/06/28 02:49:13;;;;;;;17.12;8.30;;;;;;;19.81;86.41;98053.72;4365161;32;20113;-81
2023/06/28 02:51:40;;;;;;;17.17;8.52;;;;;;;20.26;83.46;98050.13;4366010;32;20157;-81
2023/06/28 02:54:07;;;;;;;14.87;7.57;;;;;;;20.17;83.82;98046.47;4366066;32;20434;-81
2023/06/28 02:56:34;;;;;;;15.57;8.05;;;;;;;20.09;84.33;98060.19;4365568;32;20099;-81
2023/06/28 02:59:01;;;;;;;14.77;8.20;;;;;;;19.95;84.31;98057.84;4365437;32;20555;-82
2023/06/28 03:01:28;;;;;;;15.90;7.82;;;;;;;19.92;85.24;98048.47;4365894;32;20453;-81
2023/06/28 03:03:55;;;;;;;15.65;8.07;;;;;;;19.88;85.06;98057.53;4365537;32;20118;-81
2023/06/28 03:06:22;;;;;;;14.90;8.07;;;;;;;19.85;85.46;98059.53;4365922;32;20156;-81
2023/06/28 03:09:23;;;;;;;15.27;7.82;;;;;;;19.84;85.64;98060.50;4365686;32;20158;-81
2023/06/28 03:11:50;;;;;;;15.77;7.97;;;;;;;19.91;85.08;98052.03;4364465;32;20465;-81
2023/06/28 03:14:17;;;;;;;16.92;8.77;;;;;;;20.05;84.34;98056.16;4365657;32;20133;-81
2023/06/28 03:16:44;;;;;;;15.63;8.20;;;;;;;20.00;84.25;98054.88;4365488;32;20091;-81
2023/06/28 03:19:11;;;;;;;16.77;7.95;;;;;;;20.29;82.67;98047.25;4365744;32;20154;-81
2023/06/28 03:21:38;;;;;;;14.85;7.80;;;;;;;20.16;83.51;98050.03;4364705;32;20078;-81
2023/06/28 03:24:05;;;;;;;14.60;7.95;;;;;;;20.25;82.76;98043.22;4365516;32;20099;-81
2023/06/28 03:26:32;;;;;;;16.55;7.28;;;;;;;20.15;83.35;98043.16;4365633;32;20111;-81
2023/06/28 03:28:59;;;;;;;14.90;7.93;;;;;;;20.11;83.61;98041.75;4365691;32;20158;-81
2023/06/28 03:31:26;;;;;;;14.77;7.65;;;;;;;19.87;84.97;98047.16;4364953;32;20086;-82
2023/06/28 03:33:53;;;;;;;15.93;8.35;;;;;;;20.30;82.59;98047.13;4365782;32;20106;-81
2023/06/28 03:36:20;;;;;;;15.02;8.13;;;;;;;20.34;82.01;98048.53;4365724;32;20099;-81
2023/06/28 03:38:47;;;;;;;15.77;8.18;;;;;;;20.57;80.44;98046.66;4365382;32;20119;-81
2023/06/28 03:41:14;;;;;;;17.20;7.37;;;;;;;20.44;80.56;98054.72;4365100;32;20083;-81
2023/06/28 03:43:41;;;;;;;15.52;7.80;;;;;;;20.27;82.23;98049.16;4365831;32;20513;-81
2023/06/28 03:46:08;;;;;;;16.25;8.32;;;;;;;20.13;83.24;98052.91;4365500;32;20123;-81
2023/06/28 03:48:35;;;;;;;16.10;8.27;;;;;;;20.56;81.07;98046.78;4365658;32;20102;-81
2023/06/28 03:51:02;;;;;;;17.02;7.95;;;;;;;20.51;80.43;98044.53;4365027;32;20090;-82
2023/06/28 03:53:29;;;;;;;15.00;7.62;;;;;;;20.33;81.31;98044.25;4365226;32;20138;-81
2023/06/28 03:55:57;;;;;;;13.35;7.45;;;;;;;20.43;80.87;98036.50;4365700;32;20103;-81
2023/06/28 03:58:24;;;;;;;14.40;7.20;;;;;;;20.74;78.35;98032.16;4365528;32;20095;-81
2023/06/28 04:00:52;;;;;;;13.52;7.57;;;;;;;21.17;76.30;98028.50;4364846;32;20151;-81
2023/06/28 04:03:19;;;;;;;15.02;7.18;;;;;;;21.21;75.02;98024.63;4364677;32;20703;-81
2023/06/28 04:05:46;;;;;;;13.15;7.22;;;;;;;21.58;72.55;98035.37;4363400;32;20175;-82
2023/06/28 04:08:14;;;;;;;16.48;7.07;;;;;;;21.12;74.17;98028.88;4365629;32;20410;-82
2023/06/28 04:10:43;;;;;;;15.25;6.80;;;;;;;21.81;70.61;98036.84;4365354;32;20079;-81
2023/06/28 04:13:10;;;;;;;13.32;6.40;;;;;;;21.51;70.78;98045.62;4364935;32;20114;-81
2023/06/28 04:15:37;;;;;;;14.43;7.40;;;;;;;21.18;72.58;98045.88;4364539;32;20219;-81
2023/06/28 04:18:04;;;;;;;13.80;6.97;;;;;;;20.76;75.04;98056.44;4365401;32;20133;-81
2023/06/28 04:20:31;;;;;;;12.48;6.97;;;;;;;20.53;76.34;98050.50;4364994;32;20145;-81
2023/06/28 04:22:58;;;;;;;14.38;7.00;;;;;;;20.57;76.42;98059.75;4350661;33;20505;-81
2023/06/28 04:25:25;;;;;;;14.40;6.78;;;;;;;20.57;76.20;98069.41;4355183;32;20498;-81
2023/06/28 04:27:52;;;;;;;14.35;7.47;;;;;;;20.03;77.83;98071.16;4365702;32;20113;-81
2023/06/28 04:30:19;;;;;;;15.77;7.40;;;;;;;20.24;77.50;98068.59;4365571;32;20082;-81
2023/06/28 04:32:46;;;;;;;13.70;6.35;;;;;;;20.38;77.38;98070.06;4365199;32;20103;-82
2023/06/28 04:35:14;;;;;;;11.90;5.80;;;;;;;20.70;75.14;98075.28;4364957;32;20107;-81
2023/06/28 04:37:43;;;;;;;14.25;6.37;;;;;;;19.41;77.89;98074.34;4364944;32;20094;-81
2023/06/28 04:40:11;;;;;;;11.75;6.10;;;;;;;19.63;77.51;98066.50;4365142;32;20422;-81
2023/06/28 04:42:38;;;;;;;11.65;6.03;;;;;;;19.58;77.78;98070.44;4364960;32;20091;-81
2023/06/28 04:45:06;;;;;;;10.68;5.30;;;;;;;19.74;76.82;98067.44;4365329;32;20113;-81
2023/06/28 04:47:35;;;;;;;12.15;5.55;;;;;;;19.70;75.76;98068.62;4364687;32;20103;-81
2023/06/28 04:50:03;;;;;;;11.18;5.18;;;;;;;19.89;73.81;98069.66;4364698;32;20118;-81
2023/06/28 04:52:30;;;;;;;14.43;5.87;;;;;;;19.93;73.26;98071.06;4365237;32;20099;-81
2023/06/28 04:54:57;;;;;;;11.63;4.90;;;;;;;19.71;75.37;98073.75;4364988;32;20111;-81
2023/06/28 04:57:26;;;;;;;11.43;5.32;;;;;;;19.77;74.07;98085.50;4364707;32;20145;-82
2023/06/28 04:59:55;;;;;;;12.35;5.45;;;;;;;19.92;73.52;98089.53;4364980;32;20469;-82
2023/06/28 05:02:24;;;;;;;12.60;5.18;;;;;;;19.79;74.41;98094.91;4364373;32;20485;-81
2023/06/28 05:04:53;;;;;;;11.48;5.47;;;;;;;19.57;75.02;98092.34;4365065;32;20166;-81
2023/06/28 05:07:20;;;;;;;11.52;5.25;;;;;;;20.04;73.95;98098.19;4364659;32;20091;-81
2023/06/28 05:09:48;;;;;;;13.43;5.10;;;;;;;19.69;74.76;98106.25;4364719;32;20079;-81
2023/06/28 05:12:15;;;;;;;11.40;4.97;;;;;;;20.07;72.90;98108.41;4351764;32;20103;-81
2023/06/28 05:14:42;;;;;;;9.90;4.35;;;;;;;20.12;72.43;98096.63;4364925;32;20099;-81
2023/06/28 05:17:09;;;;;;;11.18;4.30;;;;;;;20.17;70.12;98099.69;4362917;32;20098;-82
2023/06/28 05:19:36;;;;;;;9.00;4.25;;;;;;;20.08;69.31;98097.81;4365005;32;20082;-81
2023/06/28 05:22:03;;;;;;;9.77;3.90;;;;;;;20.13;68.69;98105.31;4365156;32;20146;-81
2023/06/28 05:24:30;;;;;;;8.55;3.97;;;;;;;20.17;67.65;98106.72;4364671;32;20508;-81
2023/06/28 05:26:57;;;;;;;11.00;3.95;;;;;;;19.80;67.77;98107.06;4364942;32;20091;-81
2023/06/28 05:29:25;;;;;;;9.38;4.20;;;;;;;19.02;71.56;98107.84;4364405;32;20131;-81
2023/06/28 05:31:52;;;;;;;8.30;3.65;;;;;;;19.58;68.66;98112.31;4364805;32;20160;-81
2023/06/28 05:34:19;;;;;;;10.52;4.10;;;;;;;19.24;68.80;98100.97;4365048;32;20117;-81
2023/06/28 05:36:46;;;;;;;11.05;3.97;;;;;;;19.80;67.85;98111.47;4364889;32;20469;-82
2023/06/28 05:39:13;;;;;;;7.93;3.00;;;;;;;19.58;68.17;98114.94;4363973;32;20116;-81
2023/06/28 05:41:40;;;;;;;9.75;3.40;;;;;;;19.89;65.01;98118.59;4365012;32;20158;-81
2023/06/28 05:44:07;;;;;;;10.50;3.35;;;;;;;19.21;67.30;98122.97;4364736;32;20114;-81
2023/06/28 05:46:34;;;;;;;6.35;2.45;;;;;;;20.35;63.81;98128.81;4365003;32;20087;-81
2023/06/28 05:52:29;;;;;;;5.87;2.50;;;;;;;19.31;63.69;98137.00;4364200;32;20137;-81
2023/06/28 05:54:56;;;;;;;6.70;2.33;;;;;;;19.68;61.63;98130.75;4364983;32;20099;-81
2023/06/28 05:57:23;;;;;;;6.82;2.87;;;;;;;19.60;61.55;98147.88;4364716;32;20103;-81
2023/06/28 05:59:50;;;;;;;6.68;2.22;;;;;;;19.49;61.93;98149.63;4364249;32;20116;-81
2023/06/28 06:02:17;;;;;;;3.87;2.22;;;;;;;19.95;59.94;98152.12;4364246;32;20110;-82
2023/06/28 06:04:44;;;;;;;5.80;2.40;;;;;;;20.05;58.19;98152.22;4364770;32;20107;-82
2023/06/28 06:07:11;;;;;;;7.00;2.30;;;;;;;20.13;58.08;98162.94;4364329;32;20144;-82
2023/06/28 06:09:38;;;;;;;5.03;2.10;;;;;;;19.17;60.14;98150.31;4364471;32;20095;-82
2023/06/28 06:12:05;;;;;;;5.12;1.90;;;;;;;19.78;59.01;98156.09;4363788;32;20570;-81
2023/06/28 06:14:33;;;;;;;5.37;1.87;;;;;;;19.86;58.17;98151.06;4363195;32;20117;-82
2023/06/28 06:17:00;;;;;;;5.35;2.00;;;;;;;19.83;57.67;98153.94;4364496;32;20145;-81
2023/06/28 06:19:27;;;;;;;4.87;1.90;;;;;;;20.19;56.23;98157.19;4364068;32;20098;-80
2023/06/28 06:21:54;;;;;;;4.30;1.90;;;;;;;20.59;55.51;98167.09;4363905;32;20103;-81
2023/06/28 06:24:20;;;;;;;4.80;2.00;;;;;;;20.92;54.55;98172.19;4364867;32;20107;-83
2023/06/28 06:26:47;;;;;;;4.28;1.80;;;;;;;20.68;55.57;98171.59;4365577;32;20565;-80
2023/06/28 06:29:14;;;;;;;3.50;1.60;;;;;;;20.31;56.07;98173.72;4367054;32;20116;-81
2023/06/28 06:31:41;;;;;;;10.75;1.80;;;;;;;19.87;56.30;98178.91;4368600;32;20098;-82
2023/06/28 06:34:08;;;;;;;5.47;1.87;;;;;;;20.18;55.86;98173.88;4367760;32;20113;-80
2023/06/28 06:36:36;;;;;;;4.37;1.77;;;;;;;19.44;57.84;98177.94;4366061;32;20455;-80
2023/06/28 06:39:03;;;;;;;4.10;1.90;;;;;;;19.80;57.25;98190.00;4367491;32;20126;-79
2023/06/28 06:41:30;;;;;;;3.42;1.60;;;;;;;19.48;57.88;98195.06;4367426;32;20154;-78
2023/06/28 06:43:58;;;;;;;3.97;1.70;;;;;;;19.14;59.74;98192.41;4365156;32;20114;-80
2023/06/28 06:46:25;;;;;;;4.45;1.65;;;;;;;18.88;59.56;98196.94;4366704;32;20095;-80
2023/06/28 06:48:53;;;;;;;4.12;1.67;;;;;;;19.56;58.06;98185.69;4367611;32;20142;-80
2023/06/28 06:51:20;;;;;;;6.22;1.77;;;;;;;19.30;59.45;98192.91;4367990;32;20163;-81
2023/06/28 06:53:47;;;;;;;5.87;1.65;;;;;;;19.62;58.56;98194.87;4368755;32;20149;-80
2023/06/28 06:56:22;;;;;;;5.18;1.70;;;;;;;19.20;59.89;98202.37;4370344;32;20099;-80
2023/06/28 06:58:49;;;;;;;3.83;1.60;;;;;;;18.76;61.77;98205.69;4370088;32;20055;-81
2023/06/28 07:01:16;;;;;;;3.65;1.60;;;;;;;19.10;61.89;98211.03;4371730;32;20110;-81
2023/06/28 07:03:43;;;;;;;4.95;1.75;;;;;;;19.40;60.49;98216.59;4370810;32;20074;-81
2023/06/28 07:06:11;;;;;;;4.37;1.67;;;;;;;18.66;63.07;98216.00;4373225;32;20150;-81
2023/06/28 07:08:38;;;;;;;5.85;1.92;;;;;;;18.93;63.17;98217.53;4364033;32;20071;-81
2023/06/28 07:11:05;;;;;;;4.50;1.80;;;;;;;19.34;62.04;98214.41;4376184;32;20170;-81
2023/06/28 07:13:32;;;;;;;4.62;1.90;;;;;;;18.84;62.46;98205.16;4375056;32;20095;-82
2023/06/28 07:15:59;;;;;;;3.85;1.75;;;;;;;18.80;63.14;98207.12;4371177;32;20074;-81
2023/06/28 07:18:26;;;;;;;4.18;1.80;;;;;;;18.14;66.57;98205.81;4375663;32;20103;-80
2023/06/28 07:20:53;;;;;;;7.22;1.85;;;;;;;18.78;65.12;98207.25;4372594;32;20114;-81
2023/06/28 07:23:20;;;;;;;4.55;1.67;;;;;;;18.50;64.32;98204.94;4372469;32;20107;-81
2023/06/28 07:25:47;;;;;;;8.57;2.37;;;;;;;18.72;63.55;98197.25;4377078;32;20059;-82
2023/06/28 07:28:14;;;;;;;4.37;1.70;;;;;;;18.79;63.83;98206.31;4375122;32;20479;-82
2023/06/28 07:30:58;;;;;;;5.22;1.83;;;;;;;18.41;65.85;98203.84;4378018;32;20107;-82
2023/06/28 07:33:26;;;;;;;7.15;2.00;;;;;;;18.60;66.51;98205.09;4376645;32;20095;-82
2023/06/28 07:35:53;;;;;;;7.87;2.00;;;;;;;18.81;64.40;98205.34;4375510;32;20110;-81
2023/06/28 07:38:20;;;;;;;6.05;2.00;;;;;;;19.02;63.67;98201.16;4377450;32;20082;-82
2023/06/28 07:40:47;;;;;;;5.60;1.60;;;;;;;19.52;61.34;98206.97;4376424;32;20055;-82
2023/06/28 07:43:15;;;;;;;5.97;1.92;;;;;;;20.62;58.70;98208.78;4360585;32;20099;-83
2023/06/28 07:45:42;;;;;;;6.55;1.58;;;;;;;21.16;56.11;98213.94;4378414;32;20100;-83
2023/06/28 07:48:10;;;;;;;4.55;1.70;;;;;;;21.01;55.78;98215.19;4374766;32;20091;-82
2023/06/28 07:50:39;;;;;;;4.95;1.70;;;;;;;20.70;57.21;98214.25;4376696;32;20086;-83
2023/06/28 07:53:06;;;;;;;5.03;1.50;;;;;;;21.30;56.01;98226.75;4373214;32;20083;-83
2023/06/28 07:55:33;;;;;;;4.20;1.50;;;;;;;22.09;52.65;98226.19;4370684;32;20158;-83
2023/06/28 07:58:01;;;;;;;10.32;2.58;;;;;;;21.39;54.99;98224.34;4372258;32;20085;-82
2023/06/28 08:00:35;;;;;;;6.50;1.60;;;;;;;21.83;53.08;98224.00;4359938;33;20126;-82
2023/06/28 08:03:02;;;;;;;4.18;1.60;;;;;;;21.98;52.46;98223.63;4364661;32;20089;-82
2023/06/28 08:05:29;;;;;;;3.25;1.50;;;;;;;21.77;53.27;98216.66;4373050;32;20102;-82
2023/06/28 08:07:56;;;;;;;4.28;1.60;;;;;;;21.57;53.29;98222.75;4376122;32;20130;-83
2023/06/28 08:10:25;;;;;;;5.22;1.65;;;;;;;21.05;55.35;98212.22;4378032;32;20103;-83
2023/06/28 08:12:55;;;;;;;3.75;1.62;;;;;;;21.22;54.50;98210.78;4373721;32;20161;-83
2023/06/28 08:15:22;;;;;;;8.68;2.08;;;;;;;21.63;53.41;98212.59;4373916;32;20109;-83
2023/06/28 08:17:49;;;;;;;4.78;1.90;;;;;;;21.65;53.75;98201.94;4430512;27;20047;-82
2023/06/28 08:20:16;;;;;;;8.00;1.92;;;;;;;22.13;52.25;98186.41;4405815;32;20090;-83
2023/06/28 08:22:43;;;;;;;7.00;1.90;;;;;;;22.98;51.09;98203.41;4400449;32;20121;-83
2023/06/28 08:25:10;;;;;;;4.93;1.80;;;;;;;23.28;49.62;98197.94;4400544;32;20158;-84
2023/06/28 08:27:38;;;;;;;4.65;1.90;;;;;;;23.35;50.01;98187.66;4407675;32;20090;-83
2023/06/28 08:30:06;;;;;;;4.60;1.50;;;;;;;23.79;47.74;98180.06;4408836;32;20122;-82
2023/06/28 08:32:35;;;;;;;4.20;1.60;;;;;;;24.11;46.91;98191.00;4408423;32;20122;-82
2023/06/28 08:35:06;;;;;;;8.75;2.53;;;;;;;23.85;47.12;98185.59;4407004;32;20086;-82
2023/06/28 08:37:34;;;;;;;3.83;1.52;;;;;;;24.34;46.75;98183.53;4407807;32;20062;-81
2023/06/28 08:40:01;;;;;;;5.85;1.52;;;;;;;24.96;45.43;98183.62;4407104;32;20062;-81
2023/06/28 08:42:29;;;;;;;12.45;2.30;;;;;;;23.82;47.13;98185.91;4393358;32;20071;-81
2023/06/28 08:44:57;;;;;;;8.93;2.00;;;;;;;23.30;48.77;98177.56;4380129;32;20104;-80
2023/06/28 08:47:29;;;;;;;3.65;1.48;;;;;;;23.90;47.36;98171.97;4405712;32;20073;-81
2023/06/28 08:49:57;;;;;;;3.85;1.50;;;;;;;23.34;47.98;98184.22;4405297;32;20066;-80
2023/06/28 08:52:25;;;;;;;3.45;1.45;;;;;;;23.28;47.85;98176.03;4390806;32;20111;-80
2023/06/28 08:54:52;;;;;;;5.40;1.73;;;;;;;22.89;48.03;98175.28;4404033;32;20094;-80
2023/06/28 08:57:20;;;;;;;3.92;1.48;;;;;;;23.02;48.08;98171.37;4403931;32;20106;-81
2023/06/28 08:59:47;;;;;;;3.75;1.33;;;;;;;24.01;45.93;98163.03;4389895;32;20106;-81
2023/06/28 09:02:18;;;;;;;2.20;1.23;;;;;;;23.82;45.56;98164.81;4398769;32;20107;-80
2023/06/28 09:04:48;;;;;;;4.55;1.70;;;;;;;23.52;44.67;98152.72;4396720;32;20085;-80
2023/06/28 09:07:17;;;;;;;3.10;1.42;;;;;;;23.44;44.51;98160.50;4401137;32;20088;-80
2023/06/28 09:09:47;;;;;;;2.70;1.40;;;;;;;24.07;43.66;98154.56;4407976;32;20086;-80
2023/06/28 09:12:14;;;;;;;3.70;1.60;;;;;;;23.31;44.36;98155.53;4408105;32;20108;-80
2023/06/28 09:14:41;;;;;;;2.90;1.33;;;;;;;23.68;44.86;98162.63;4393538;32;20063;-80
2023/06/28 09:17:08;;;;;;;4.97;1.35;;;;;;;24.06;42.86;98161.63;4408493;32;20260;-80
2023/06/28 09:19:37;;;;;;;4.32;2.28;;;;;;;24.20;43.38;98166.41;4408929;32;20075;-81
2023/06/28 09:22:04;;;;;;;4.55;1.50;;;;;;;24.16;43.24;98161.59;4408845;32;20161;-81
2023/06/28 09:24:34;;;;;;;4.43;1.52;;;;;;;24.27;43.63;98179.00;4408351;32;20074;-81
2023/06/28 09:27:05;;;;;;;2.80;1.50;;;;;;;24.19;43.65;98169.19;4406118;32;20118;-81
2023/06/28 09:29:33;;;;;;;2.92;1.42;;;;;;;24.90;41.46;98165.78;4398827;32;20078;-81
2023/06/28 09:32:00;;;;;;;3.50;1.52;;;;;;;25.08;41.16;98156.03;4395906;32;20114;-81
2023/06/28 09:34:27;;;;;;;4.70;1.50;;;;;;;25.10;38.89;98159.38;4404922;32;20149;-81
2023/06/28 09:36:56;;;;;;;2.83;1.40;;;;;;;25.16;40.16;98163.19;4403280;32;20127;-81
2023/06/28 09:39:25;;;;;;;3.17;1.30;;;;;;;25.23;38.43;98164.22;4392217;32;20459;-81
2023/06/28 09:41:53;;;;;;;1.55;1.08;;;;;;;25.34;39.41;98169.25;4405274;32;20086;-80
2023/06/28 09:44:30;;;;;;;3.60;1.12;;;;;;;24.83;37.56;98164.72;4403769;32;20109;-81
2023/06/28 09:47:04;;;;;;;2.00;1.30;;;;;;;24.89;39.29;98166.75;4403932;32;20385;-81
2023/06/28 09:49:31;;;;;;;3.08;1.10;;;;;;;24.52;38.86;98162.47;4395312;32;20106;-81
2023/06/28 09:52:03;;;;;;;4.68;1.20;;;;;;;24.20;39.76;98170.84;4382977;32;20106;-81
2023/06/28 09:54:31;;;;;;;2.97;1.23;;;;;;;24.58;39.43;98168.97;4397377;32;20101;-80
2023/06/28 09:56:59;;;;;;;3.37;1.48;;;;;;;24.37;40.11;98161.34;4396515;32;20422;-81
2023/06/28 09:59:29;;;;;;;2.22;1.20;;;;;;;24.35;39.99;98168.53;4399416;32;20464;-80
2023/06/28 10:02:05;;;;;;;3.05;1.10;;;;;;;24.18;39.96;98163.09;4383668;32;20479;-81
2023/06/28 10:04:34;;;;;;;4.20;1.30;;;;;;;24.55;39.21;98166.59;4395388;32;20346;-81
2023/06/28 10:07:03;;;;;;;2.78;1.20;;;;;;;24.64;39.73;98153.34;4397242;32;20228;-80
2023/06/28 10:09:38;;;;;;;2.20;1.10;;;;;;;24.62;38.59;98150.03;4395531;32;20094;-81
2023/06/28 10:12:13;;;;;;;1.70;1.00;;;;;;;23.77;39.07;98153.03;4396344;32;20093;-81
2023/06/28 10:14:49;;;;;;;3.67;1.35;;;;;;;24.56;38.42;98158.53;4396967;32;20200;-80
2023/06/28 10:17:16;;;;;;;3.53;1.10;;;;;;;24.80;37.53;98157.94;4394883;32;20133;-80
2023/06/28 10:20:02;;;;;;;1.85;1.00;;;;;;;24.73;38.05;98157.72;4385898;32;20150;-79
2023/06/28 10:22:29;;;;;;;2.78;1.27;;;;;;;24.28;38.31;98155.13;4395295;32;20098;-79
2023/06/28 10:24:58;;;;;;;2.75;1.00;;;;;;;25.35;36.84;98160.34;4378813;32;20118;-79
2023/06/28 10:27:25;;;;;;;1.83;1.20;;;;;;;25.38;35.39;98152.09;4393032;32;20094;-80
2023/06/28 10:29:53;;;;;;;2.92;1.30;;;;;;;25.89;37.01;98147.75;4394488;32;20137;-79
2023/06/28 10:32:20;;;;;;;2.42;1.23;;;;;;;27.16;33.55;98152.75;4392651;32;20098;-79
2023/06/28 10:34:48;;;;;;;4.00;1.30;;;;;;;27.88;32.33;98141.16;4392352;32;20109;-81
2023/06/28 10:37:20;;;;;;;3.08;1.12;;;;;;;28.06;32.45;98142.72;4395235;32;20155;-81
2023/06/28 10:39:50;;;;;;;5.65;1.20;;;;;;;27.61;32.47;98139.72;4394615;32;20117;-80
2023/06/28 10:42:18;;;;;;;2.72;1.00;;;;;;;26.66;32.91;98143.16;4383466;32;20181;-80
2023/06/28 10:44:56;;;;;;;2.78;1.10;;;;;;;26.74;33.15;98136.03;4396932;32;20106;-81
2023/06/28 10:47:24;;;;;;;2.80;1.17;;;;;;;26.08;35.68;98134.28;4398121;32;20066;-81
2023/06/28 10:50:14;;;;;;;2.58;1.25;;;;;;;25.80;34.98;98130.22;4396255;32;20550;-81
2023/06/28 10:52:57;;;;;;;2.12;1.00;;;;;;;26.00;35.53;98131.59;4395264;32;20205;-81
2023/06/28 10:55:32;;;;;;;2.37;1.30;;;;;;;25.78;36.63;98134.81;4383068;32;20082;-80
2023/06/28 10:58:07;;;;;;;2.00;1.00;;;;;;;26.58;34.10;98132.56;4397466;32;20181;-80
2023/06/28 11:00:36;;;;;;;1.20;1.00;;;;;;;26.56;32.85;98131.91;4394091;32;20131;-79
2023/06/28 11:03:04;;;;;;;2.00;1.10;;;;;;;26.38;33.41;98129.41;4395990;32;20089;-79
2023/06/28 11:05:51;;;;;;;2.90;0.98;;;;;;;26.75;33.87;98127.09;4395967;32;20599;-79
2023/06/28 11:08:18;;;;;;;5.37;1.25;;;;;;;26.27;34.17;98135.81;4395165;32;20106;-79
2023/06/28 11:10:49;;;;;;;6.22;1.42;;;;;;;26.38;33.49;98140.00;4395910;32;20154;-79
2023/06/28 11:13:49;;;;;;;2.12;1.00;;;;;;;25.71;34.73;98131.97;4402096;32;20074;-79
2023/06/28 11:16:21;;;;;;;2.67;1.15;;;;;;;27.12;32.64;98135.56;4395940;32;20085;-78
2023/06/28 11:18:50;;;;;;;4.78;1.20;;;;;;;27.20;33.16;98128.41;4394933;32;20094;-78
2023/06/28 11:21:23;;;;;;;2.40;1.02;;;;;;;26.94;34.17;98138.34;4382308;32;20141;-78
2023/06/28 11:23:56;;;;;;;4.50;1.08;;;;;;;26.92;33.88;98125.28;4396140;32;20098;-78
2023/06/28 11:26:41;;;;;;;3.05;0.98;;;;;;;26.40;33.28;98136.19;4395637;32;20086;-78
2023/06/28 11:32:37;;;;;;;1.85;0.90;;;;;;;25.80;34.58;98127.56;4395623;32;20157;-78
2023/06/28 11:35:05;;;;;;;1.50;0.90;;;;;;;25.88;35.06;98109.94;4395536;32;20543;-77
2023/06/28 11:37:32;;;;;;;3.03;1.00;;;;;;;26.47;33.96;98110.72;4395607;32;20094;-76
2023/06/28 11:39:59;;;;;;;1.50;1.02;;;;;;;26.13;34.41;98109.97;4395168;32;20078;-78
2023/06/28 11:42:26;;;;;;;2.45;1.00;;;;;;;26.60;34.25;98110.25;4381271;32;20107;-78